Time;durP1;ratioP1;P1;durP2;ratioP2;P2;SDS_P1;SDS_P2;PMS_P1;PMS_P2;Temp;Humidity;BMP_temperature;BMP_pressure;BME280_temperature;BME280_humidity;BME280_pressure;Samples;Min_cycle;Max_cycle;Signal;HPM_P1;HPM_P2
2023/09/28 00:01:12;;;;;;;3.63;3.33;;;18.40;71.60;17.50;96644.00;;;;5019708;28;20198;-87
2023/09/28 00:03:40;;;;;;;3.80;3.50;;;18.40;71.70;17.50;96644.00;;;;5018495;28;20207;-86
2023/09/28 00:06:06;;;;;;;4.57;3.33;;;18.40;71.60;17.50;96646.00;;;;5020074;28;20724;-87
2023/09/28 00:08:34;;;;;;;5.30;4.60;;;18.40;71.50;17.40;96645.00;;;;5017747;28;20209;-86
2023/09/28 00:11:01;;;;;;;4.30;3.90;;;18.40;71.50;17.40;96651.00;;;;5004294;28;20206;-87
2023/09/28 00:13:28;;;;;;;3.93;3.63;;;18.40;71.40;17.40;96648.00;;;;5004254;28;20198;-86
2023/09/28 00:15:54;;;;;;;4.23;3.93;;;18.40;71.40;17.40;96657.00;;;;5005467;28;20232;-87
2023/09/28 00:18:23;;;;;;;4.10;3.80;;;18.30;71.20;17.40;96650.00;;;;5006111;28;20255;-86
2023/09/28 00:20:49;;;;;;;3.80;3.50;;;18.30;71.30;17.40;96655.00;;;;5004064;28;20206;-86
2023/09/28 00:23:17;;;;;;;4.70;4.30;;;18.30;71.30;17.30;96656.00;;;;5005295;28;20206;-87
2023/09/28 00:25:46;;;;;;;4.40;4.00;;;18.30;71.30;17.30;96660.00;;;;5003571;28;20565;-86
2023/09/28 00:28:13;;;;;;;4.30;4.00;;;18.30;71.20;17.30;96648.00;;;;4998398;28;20670;-87
2023/09/28 00:30:42;;;;;;;4.00;3.70;;;18.30;71.20;17.30;96655.00;;;;5070925;28;20218;-87
2023/09/28 00:33:09;;;;;;;3.90;3.60;;;18.30;71.20;17.30;96661.00;;;;4983065;28;20659;-87
2023/09/28 00:35:35;;;;;;;4.37;4.07;;;18.30;71.20;17.30;96659.00;;;;4987532;28;20218;-87
2023/09/28 00:38:02;;;;;;;4.37;4.03;;;18.20;71.10;17.20;96669.00;;;;4991827;28;20201;-87
2023/09/28 00:40:31;;;;;;;4.37;3.70;;;18.20;71.80;17.20;96673.00;;;;4985705;28;20227;-86
2023/09/28 00:43:01;;;;;;;4.50;4.17;;;18.20;71.10;17.20;96662.00;;;;4991482;28;20235;-87
2023/09/28 00:45:28;;;;;;;4.40;3.87;;;18.20;71.20;17.20;96658.00;;;;4992252;28;20566;-88
2023/09/28 00:47:59;;;;;;;3.90;3.70;;;18.10;71.20;17.20;96655.00;;;;4992016;28;20575;-87
2023/09/28 00:50:28;;;;;;;4.87;4.47;;;18.10;71.20;17.10;96657.00;;;;4990142;28;20207;-86
2023/09/28 00:52:59;;;;;;;4.63;4.20;;;18.10;71.20;17.10;96662.00;;;;4990268;28;20727;-86
2023/09/28 00:55:27;;;;;;;4.33;3.97;;;18.10;71.30;17.10;96664.00;;;;4991770;28;20295;-86
2023/09/28 00:58:01;;;;;;;4.50;4.20;;;18.10;71.30;17.10;96656.00;;;;4988892;28;20587;-86
2023/09/28 01:00:29;;;;;;;5.50;4.70;;;18.10;71.50;17.10;96659.00;;;;5006975;28;20313;-87
2023/09/28 01:02:59;;;;;;;5.10;4.70;;;18.10;71.60;17.10;96670.00;;;;4987748;28;20224;-86
2023/09/28 01:05:30;;;;;;;5.10;4.70;;;18.10;72.00;17.10;96662.00;;;;4989869;28;20253;-86
2023/09/28 01:08:07;;;;;;;5.23;4.83;;;18.10;72.30;17.10;96662.00;;;;4989582;28;20731;-87
2023/09/28 01:10:36;;;;;;;4.33;3.93;;;18.00;73.10;17.20;96657.00;;;;4990843;28;20256;-87
2023/09/28 01:13:08;;;;;;;5.37;4.87;;;18.10;72.50;17.20;96653.00;;;;4990599;28;20210;-87
2023/09/28 01:15:35;;;;;;;5.37;4.97;;;18.10;72.60;17.20;96659.00;;;;4991242;28;20780;-87
2023/09/28 01:18:03;;;;;;;5.03;4.63;;;18.10;72.80;17.20;96654.00;;;;4990917;28;20207;-87
2023/09/28 01:20:35;;;;;;;4.57;4.17;;;18.10;73.00;17.20;96663.00;;;;4989505;28;20258;-86
2023/09/28 01:23:05;;;;;;;5.20;4.80;;;18.10;73.80;17.20;96668.00;;;;4989698;28;20203;-87
2023/09/28 01:25:31;;;;;;;4.90;4.47;;;18.10;73.10;17.30;96664.00;;;;4986671;28;20237;-86
2023/09/28 01:28:00;;;;;;;5.00;4.63;;;18.10;73.00;17.30;96661.00;;;;4988000;28;20672;-86
2023/09/28 01:30:27;;;;;;;6.20;5.53;;;18.20;72.90;17.30;96663.00;;;;4984239;28;20584;-87
2023/09/28 01:32:54;;;;;;;6.00;5.50;;;18.10;72.70;17.20;96667.00;;;;4988668;28;20209;-86
2023/09/28 01:35:21;;;;;;;5.47;5.03;;;18.20;72.90;17.20;96665.00;;;;4949227;28;20233;-87
2023/09/28 01:38:00;;;;;;;5.60;4.77;;;18.10;72.70;17.20;96666.00;;;;4969178;28;20198;-86
2023/09/28 01:40:28;;;;;;;4.97;4.57;;;18.20;72.80;17.20;96672.00;;;;4991337;28;20222;-87
2023/09/28 01:42:55;;;;;;;5.90;5.40;;;18.10;73.20;17.20;96675.00;;;;4989091;28;20202;-86
2023/09/28 01:45:21;;;;;;;5.67;5.23;;;18.10;72.60;17.20;96675.00;;;;4991301;28;20717;-86
2023/09/28 01:47:48;;;;;;;5.97;5.47;;;18.10;72.70;17.20;96669.00;;;;4990465;28;20207;-87
2023/09/28 01:50:15;;;;;;;5.63;5.10;;;18.10;73.40;17.10;96672.00;;;;4990727;28;20203;-86
2023/09/28 01:52:42;;;;;;;5.60;5.10;;;18.10;72.70;17.10;96674.00;;;;4994021;28;20192;-86
2023/09/28 01:55:09;;;;;;;5.37;4.87;;;18.10;72.60;17.10;96671.00;;;;4990960;28;20223;-86
2023/09/28 01:57:38;;;;;;;5.13;4.73;;;18.10;72.60;17.10;96676.00;;;;4989233;28;20286;-87
2023/09/28 02:00:12;;;;;;;4.93;4.53;;;18.10;72.60;17.10;96673.00;;;;4991475;28;20227;-86
2023/09/28 02:02:39;;;;;;;5.97;5.07;;;18.00;72.40;17.10;96670.00;;;;4988220;28;20203;-86
2023/09/28 02:05:07;;;;;;;5.30;4.90;;;18.00;72.30;17.10;96665.00;;;;4986438;28;20300;-87
2023/09/28 02:07:35;;;;;;;7.07;4.80;;;18.00;72.30;17.10;96667.00;;;;4984338;28;20207;-86
2023/09/28 02:10:01;;;;;;;5.57;5.00;;;18.00;72.20;17.00;96672.00;;;;4985647;28;20270;-86
2023/09/28 02:12:28;;;;;;;5.23;4.83;;;18.00;72.10;17.00;96668.00;;;;4988725;28;20198;-87
2023/09/28 02:14:56;;;;;;;5.37;4.97;;;18.00;72.10;17.00;96679.00;;;;4985472;28;20203;-86
2023/09/28 02:17:23;;;;;;;5.60;5.10;;;18.00;72.10;17.00;96674.00;;;;4984295;28;20569;-86
2023/09/28 02:19:50;;;;;;;5.80;5.03;;;18.00;71.90;17.00;96674.00;;;;4988561;28;20804;-87
2023/09/28 02:22:17;;;;;;;5.30;4.90;;;17.90;71.80;16.90;96673.00;;;;4985575;28;20195;-87
2023/09/28 02:24:45;;;;;;;5.57;5.07;;;17.90;71.90;16.90;96679.00;;;;4988970;28;20202;-87
2023/09/28 02:27:11;;;;;;;4.83;4.53;;;17.90;71.90;16.90;96679.00;;;;4979474;28;20242;-86
2023/09/28 02:29:38;;;;;;;5.63;5.00;;;17.90;72.00;16.90;96681.00;;;;5072608;28;20655;-84
2023/09/28 02:32:06;;;;;;;5.37;4.97;;;17.90;72.00;16.90;96674.00;;;;4993817;28;20207;-86
2023/09/28 02:34:34;;;;;;;4.93;4.53;;;17.90;71.90;16.80;96683.00;;;;4987327;28;20633;-87
2023/09/28 02:37:03;;;;;;;4.90;4.50;;;17.80;71.70;16.80;96689.00;;;;4989224;28;20624;-87
2023/09/28 02:39:30;;;;;;;5.73;5.23;;;17.80;71.80;16.80;96689.00;;;;4981539;28;20585;-86
2023/09/28 02:41:56;;;;;;;4.83;4.53;;;17.80;71.80;16.80;96689.00;;;;4990123;28;20205;-86
2023/09/28 02:44:23;;;;;;;5.10;4.70;;;17.80;72.50;16.80;96684.00;;;;4987210;28;20191;-87
2023/09/28 02:46:50;;;;;;;5.53;5.10;;;17.80;71.80;16.70;96689.00;;;;4988438;28;20494;-87
2023/09/28 02:49:20;;;;;;;5.50;5.00;;;17.80;71.90;16.70;96693.00;;;;4990794;28;20234;-86
2023/09/28 02:51:46;;;;;;;5.50;5.10;;;17.70;71.80;16.70;96692.00;;;;4989501;28;20663;-86
2023/09/28 02:54:13;;;;;;;6.53;5.23;;;17.70;71.70;16.70;96691.00;;;;4990117;28;20576;-86
2023/09/28 02:56:39;;;;;;;5.03;4.63;;;17.70;71.70;16.60;96698.00;;;;4988898;28;20218;-87
2023/09/28 02:59:07;;;;;;;4.93;4.53;;;17.70;71.70;16.60;96691.00;;;;4989721;28;20278;-86
2023/09/28 03:01:33;;;;;;;5.67;5.17;;;17.70;71.70;16.60;96693.00;;;;4990677;28;20199;-87
2023/09/28 03:04:01;;;;;;;5.53;4.93;;;17.60;71.80;16.60;96690.00;;;;4988717;28;20685;-87
2023/09/28 03:06:37;;;;;;;5.50;5.10;;;17.60;71.80;16.60;96704.00;;;;4988204;28;20303;-86
2023/09/28 03:09:06;;;;;;;5.23;4.80;;;17.60;71.90;16.60;96696.00;;;;4989221;28;20206;-86
2023/09/28 03:11:34;;;;;;;5.60;4.93;;;17.60;71.80;16.60;96703.00;;;;4988697;28;20660;-87
2023/09/28 03:14:02;;;;;;;5.00;4.60;;;17.60;71.80;16.50;96703.00;;;;4988438;28;20206;-87
2023/09/28 03:16:28;;;;;;;5.40;5.00;;;17.50;71.60;16.50;96704.00;;;;4985857;28;20253;-86
2023/09/28 03:18:57;;;;;;;5.50;5.03;;;17.50;71.70;16.50;96701.00;;;;4985628;28;20207;-86
2023/09/28 03:21:23;;;;;;;5.07;4.57;;;17.50;71.70;16.50;96703.00;;;;4988089;28;20222;-86
2023/09/28 03:23:52;;;;;;;5.20;4.80;;;17.50;71.80;16.50;96703.00;;;;4988247;28;20199;-87
2023/09/28 03:26:20;;;;;;;5.00;4.67;;;17.50;72.00;16.50;96708.00;;;;4988165;28;20211;-86
2023/09/28 03:28:46;;;;;;;5.40;4.93;;;17.50;72.10;16.50;96708.00;;;;5072403;28;20203;-86
2023/09/28 03:31:13;;;;;;;4.97;4.57;;;17.50;72.20;16.50;96708.00;;;;4989131;28;20250;-86
2023/09/28 03:33:40;;;;;;;5.33;4.83;;;17.50;72.30;16.50;96704.00;;;;4986319;28;20199;-86
2023/09/28 03:36:08;;;;;;;6.83;6.13;;;17.50;73.20;16.50;96713.00;;;;4989246;28;20226;-87
2023/09/28 03:38:35;;;;;;;5.80;5.30;;;17.50;72.80;16.50;96708.00;;;;4988259;28;20210;-87
2023/09/28 03:41:06;;;;;;;5.83;5.33;;;17.50;73.10;16.50;96714.00;;;;4990092;28;20229;-87
2023/09/28 03:43:34;;;;;;;6.33;5.77;;;17.40;73.10;16.50;96710.00;;;;4971277;28;20205;-86
2023/09/28 03:46:01;;;;;;;5.93;5.43;;;17.50;73.00;16.50;96708.00;;;;4988830;28;20227;-86
2023/09/28 03:48:28;;;;;;;5.60;5.00;;;17.40;72.90;16.50;96708.00;;;;4985025;28;20287;-84
2023/09/28 03:50:56;;;;;;;5.27;4.77;;;17.40;72.90;16.50;96702.00;;;;4989606;28;20206;-85
2023/09/28 03:53:23;;;;;;;5.23;4.83;;;17.40;72.90;16.40;96706.00;;;;4990893;28;20199;-84
2023/09/28 03:55:50;;;;;;;8.43;5.03;;;17.40;72.90;16.40;96711.00;;;;5003255;28;20212;-84
2023/09/28 03:58:19;;;;;;;5.17;4.77;;;17.40;72.90;16.40;96703.00;;;;4987961;28;20262;-85
2023/09/28 04:00:46;;;;;;;5.37;5.00;;;17.40;72.90;16.40;96710.00;;;;4984645;28;20237;-85
2023/09/28 04:03:14;;;;;;;5.57;5.07;;;17.40;72.90;16.40;96713.00;;;;4986261;28;20206;-84
2023/09/28 04:05:41;;;;;;;5.20;4.80;;;17.40;72.80;16.40;96710.00;;;;4986803;28;20757;-85
2023/09/28 04:08:09;;;;;;;5.50;5.00;;;17.40;72.70;16.40;96714.00;;;;4973490;28;20195;-84
2023/09/28 04:10:36;;;;;;;5.40;5.00;;;17.40;72.60;16.40;96716.00;;;;5004690;28;20295;-85
2023/09/28 04:13:03;;;;;;;5.33;4.93;;;17.40;72.60;16.40;96717.00;;;;4988335;28;20282;-84
2023/09/28 04:15:32;;;;;;;5.53;5.03;;;17.40;72.60;16.40;96715.00;;;;4992379;28;20237;-85
2023/09/28 04:18:00;;;;;;;5.17;4.77;;;17.40;72.60;16.30;96727.00;;;;4994035;28;20205;-84
2023/09/28 04:20:27;;;;;;;5.20;4.80;;;17.30;72.50;16.30;96728.00;;;;4997779;28;20645;-84
2023/09/28 04:22:55;;;;;;;5.60;5.10;;;17.30;72.30;16.30;96731.00;;;;4998903;28;20203;-85
2023/09/28 04:25:26;;;;;;;5.30;4.90;;;17.30;72.30;16.30;96731.00;;;;5030875;28;20253;-84
2023/09/28 04:27:53;;;;;;;4.90;4.50;;;17.30;72.20;16.30;96725.00;;;;4999461;28;20206;-84
2023/09/28 04:30:20;;;;;;;5.50;5.00;;;17.30;72.20;16.20;96728.00;;;;5025843;28;20754;-84
2023/09/28 04:32:50;;;;;;;5.10;4.70;;;17.30;72.20;16.20;96731.00;;;;4980668;28;20203;-84
2023/09/28 04:35:18;;;;;;;5.63;5.13;;;17.30;72.10;16.20;96722.00;;;;4996556;28;20250;-84
2023/09/28 04:37:46;;;;;;;5.47;4.97;;;17.20;72.00;16.20;96729.00;;;;4997270;28;20218;-84
2023/09/28 04:40:13;;;;;;;5.57;5.00;;;17.20;72.00;16.20;96729.00;;;;4995023;28;20250;-84
2023/09/28 04:42:41;;;;;;;5.20;4.80;;;17.20;72.10;16.10;96729.00;;;;5000722;28;20213;-84
2023/09/28 04:45:09;;;;;;;6.37;5.27;;;17.20;72.00;16.10;96730.00;;;;5007534;28;20202;-84
2023/09/28 04:47:37;;;;;;;5.07;4.70;;;17.20;72.70;16.10;96730.00;;;;5028556;28;20252;-84
2023/09/28 04:50:08;;;;;;;5.07;4.67;;;17.10;71.90;16.10;96732.00;;;;4998720;28;20302;-83
2023/09/28 04:52:35;;;;;;;5.33;4.93;;;17.10;72.00;16.10;96736.00;;;;4988539;28;20198;-83
2023/09/28 04:55:02;;;;;;;4.90;4.60;;;17.10;72.00;16.00;96746.00;;;;4974752;28;20195;-84
2023/09/28 04:57:31;;;;;;;5.20;4.70;;;17.10;72.00;16.00;96739.00;;;;4990635;28;20199;-85
2023/09/28 04:59:58;;;;;;;5.57;4.57;;;17.10;72.10;16.00;96741.00;;;;4991251;28;20229;-84
2023/09/28 05:02:26;;;;;;;5.43;4.93;;;17.10;72.20;16.00;96742.00;;;;4992706;28;20202;-85
2023/09/28 05:04:54;;;;;;;4.50;4.20;;;17.00;72.20;16.00;96740.00;;;;4981563;28;20230;-85
2023/09/28 05:07:22;;;;;;;4.97;4.57;;;17.00;72.30;16.00;96736.00;;;;4981192;28;20217;-84
2023/09/28 05:09:50;;;;;;;4.63;4.23;;;17.00;72.30;16.00;96748.00;;;;4989397;28;20191;-85
2023/09/28 05:12:17;;;;;;;4.80;4.40;;;17.00;72.60;16.00;96745.00;;;;4988889;28;20211;-85
2023/09/28 05:14:44;;;;;;;4.70;4.30;;;17.00;72.70;16.00;96752.00;;;;4991429;28;20279;-84
2023/09/28 05:17:11;;;;;;;4.03;3.73;;;17.10;72.70;16.10;96750.00;;;;4957627;28;20223;-85
2023/09/28 05:19:40;;;;;;;4.13;3.73;;;17.10;72.60;16.10;96754.00;;;;5002407;28;20207;-85
2023/09/28 05:22:10;;;;;;;3.93;3.43;;;17.10;73.20;16.10;96750.00;;;;4986454;28;20686;-85
2023/09/28 05:24:38;;;;;;;3.90;3.47;;;17.10;72.40;16.10;96750.00;;;;4991198;28;20203;-84
2023/09/28 05:27:07;;;;;;;4.10;3.80;;;17.10;72.40;16.10;96750.00;;;;4983149;28;20215;-83
2023/09/28 05:29:34;;;;;;;3.97;3.67;;;17.10;72.30;16.10;96758.00;;;;5063657;28;20580;-83
2023/09/28 05:32:04;;;;;;;3.57;3.27;;;17.20;72.30;16.10;96743.00;;;;4991683;28;20215;-84
2023/09/28 05:34:31;;;;;;;4.83;3.77;;;17.20;72.30;16.10;96755.00;;;;4985941;28;20199;-83
2023/09/28 05:36:58;;;;;;;3.53;3.33;;;17.20;72.30;16.10;96753.00;;;;4984377;28;20293;-83
2023/09/28 05:39:26;;;;;;;3.33;3.00;;;17.20;72.30;16.10;96765.00;;;;4990279;28;20230;-83
2023/09/28 05:41:56;;;;;;;3.10;2.90;;;17.20;72.40;16.10;96760.00;;;;4973973;28;20230;-83
2023/09/28 05:44:23;;;;;;;3.40;3.10;;;17.20;72.50;16.20;96766.00;;;;4986163;28;20200;-84
2023/09/28 05:46:51;;;;;;;3.10;2.90;;;17.20;72.70;16.20;96765.00;;;;4998754;28;20660;-84
2023/09/28 05:49:18;;;;;;;2.80;2.60;;;17.20;72.90;16.20;96759.00;;;;4989964;28;20222;-86
2023/09/28 05:51:46;;;;;;;3.27;3.00;;;17.30;73.20;16.20;96762.00;;;;4991702;28;20219;-86
2023/09/28 05:54:13;;;;;;;3.07;2.87;;;17.30;74.00;16.30;96765.00;;;;4984705;28;20195;-86
2023/09/28 05:56:40;;;;;;;3.50;3.20;;;17.30;73.30;16.30;96771.00;;;;4990925;28;20241;-86
2023/09/28 05:59:09;;;;;;;3.73;3.53;;;17.30;74.10;16.30;96778.00;;;;5004685;28;20205;-85
2023/09/28 06:01:37;;;;;;;3.30;3.10;;;17.30;73.50;16.40;96774.00;;;;4987954;28;20752;-84
2023/09/28 06:04:05;;;;;;;3.20;3.00;;;17.40;73.60;16.40;96781.00;;;;4985167;28;20599;-84
2023/09/28 06:06:33;;;;;;;3.00;2.80;;;17.40;73.70;16.40;96772.00;;;;4974038;28;20227;-85
2023/09/28 06:09:00;;;;;;;2.63;2.43;;;17.40;73.80;16.40;96777.00;;;;4979222;28;20570;-86
2023/09/28 06:11:27;;;;;;;2.77;2.57;;;17.40;73.80;16.50;96775.00;;;;4986006;28;20207;-85
2023/09/28 06:13:55;;;;;;;2.90;2.70;;;17.40;73.80;16.50;96776.00;;;;4991411;28;20564;-86
2023/09/28 06:16:25;;;;;;;3.27;2.97;;;17.50;74.00;16.60;96781.00;;;;4984306;28;20302;-86
2023/09/28 06:18:53;;;;;;;3.67;3.47;;;17.50;74.20;16.60;96782.00;;;;4985895;28;20217;-86
2023/09/28 06:21:20;;;;;;;3.37;3.13;;;17.50;74.30;16.60;96777.00;;;;4977672;28;20242;-85
2023/09/28 06:23:48;;;;;;;3.33;3.10;;;17.60;74.80;16.70;96777.00;;;;5020109;23;20459;-78
2023/09/28 06:26:15;;;;;;;3.87;3.57;;;17.60;75.30;16.70;96775.00;;;;5052997;28;20189;-79
2023/09/28 06:28:42;;;;;;;5.50;5.00;;;17.60;74.80;16.70;96777.00;;;;5064772;28;20202;-79
2023/09/28 06:31:10;;;;;;;4.40;4.10;;;17.70;75.10;16.80;96781.00;;;;5063306;28;20200;-79
2023/09/28 06:33:39;;;;;;;4.80;4.40;;;17.70;75.50;16.80;96781.00;;;;5059161;28;20219;-79
2023/09/28 06:36:06;;;;;;;5.10;4.60;;;17.70;75.70;16.90;96785.00;;;;5033829;28;20196;-79
2023/09/28 06:38:34;;;;;;;5.00;4.60;;;17.80;75.90;17.00;96791.00;;;;5034367;28;20208;-79
2023/09/28 06:41:01;;;;;;;5.33;4.83;;;17.80;76.10;17.00;96787.00;;;;5043984;28;20226;-79
2023/09/28 06:43:28;;;;;;;4.93;4.57;;;17.90;76.30;17.10;96791.00;;;;5047803;28;20296;-79
2023/09/28 06:45:56;;;;;;;4.90;4.50;;;17.90;76.30;17.20;96789.00;;;;5031722;28;20207;-78
2023/09/28 06:48:24;;;;;;;5.63;5.17;;;18.00;76.40;17.20;96794.00;;;;5036102;28;20197;-78
2023/09/28 06:50:54;;;;;;;4.87;4.20;;;18.00;76.50;17.30;96791.00;;;;5050757;28;20480;-79
2023/09/28 06:53:21;;;;;;;4.77;4.37;;;18.10;76.70;17.40;96792.00;;;;5034652;28;20193;-79
2023/09/28 06:55:48;;;;;;;4.60;4.30;;;18.20;76.70;17.40;96792.00;;;;5048045;28;20188;-79
2023/09/28 06:58:17;;;;;;;4.73;4.40;;;18.20;76.90;17.50;96796.00;;;;5048491;28;20779;-79
2023/09/28 07:00:45;;;;;;;4.97;4.60;;;18.30;77.00;17.60;96803.00;;;;5030931;28;20220;-79
2023/09/28 07:03:13;;;;;;;4.23;3.93;;;18.40;77.10;17.70;96808.00;;;;5047574;28;20220;-78
2023/09/28 07:05:41;;;;;;;5.37;4.80;;;18.40;77.20;17.70;96810.00;;;;5036638;28;20279;-80
2023/09/28 07:08:10;;;;;;;4.47;4.17;;;18.50;77.40;17.80;96813.00;;;;5000242;28;20200;-79
2023/09/28 07:10:38;;;;;;;5.43;4.93;;;18.60;77.60;17.90;96813.00;;;;5051836;28;20204;-79
2023/09/28 07:13:07;;;;;;;6.00;5.40;;;18.60;77.70;18.00;96819.00;;;;5051760;28;20203;-79
2023/09/28 07:15:37;;;;;;;5.13;4.73;;;18.70;77.90;18.00;96816.00;;;;5051520;28;20224;-79
2023/09/28 07:18:04;;;;;;;5.40;4.90;;;18.80;77.80;18.10;96826.00;;;;5048983;28;20203;-78
2023/09/28 07:20:32;;;;;;;4.77;4.37;;;18.80;78.00;18.20;96821.00;;;;5051073;28;20200;-78
2023/09/28 07:22:59;;;;;;;4.97;4.43;;;18.90;78.20;18.30;96830.00;;;;5036368;28;20205;-78
2023/09/28 07:25:29;;;;;;;4.17;3.83;;;19.00;78.40;18.40;96829.00;;;;5048938;28;20230;-79
2023/09/28 07:27:57;;;;;;;3.77;3.47;;;19.00;78.50;18.50;96832.00;;;;5050364;28;20572;-85
2023/09/28 07:30:25;;;;;;;4.53;4.23;;;19.10;78.60;18.60;96832.00;;;;5043995;28;20212;-77
2023/09/28 07:32:53;;;;;;;4.00;3.70;;;19.20;78.60;18.70;96840.00;;;;5043192;28;20554;-77
2023/09/28 07:35:20;;;;;;;4.50;4.10;;;19.30;78.70;18.70;96842.00;;;;5029616;28;20221;-78
2023/09/28 07:37:48;;;;;;;4.20;3.90;;;19.40;78.60;18.80;96837.00;;;;5050298;28;20203;-77
2023/09/28 07:40:17;;;;;;;4.47;4.13;;;19.50;78.60;18.90;96846.00;;;;5034159;28;20193;-78
2023/09/28 07:42:46;;;;;;;5.33;4.83;;;19.50;78.60;19.00;96846.00;;;;5054439;28;20277;-78
2023/09/28 07:45:14;;;;;;;5.83;4.20;;;19.60;78.80;19.10;96850.00;;;;5050215;28;20273;-79
2023/09/28 07:47:42;;;;;;;4.67;4.27;;;19.70;78.70;19.20;96856.00;;;;5053410;28;20772;-78
2023/09/28 07:50:14;;;;;;;4.47;4.17;;;19.80;78.80;19.30;96853.00;;;;5035603;28;20196;-78
2023/09/28 07:52:42;;;;;;;4.30;3.80;;;19.90;78.90;19.40;96862.00;;;;5053140;28;20642;-78
2023/09/28 07:55:10;;;;;;;4.40;4.00;;;20.00;79.40;19.50;96862.00;;;;5053417;28;20219;-78
2023/09/28 07:57:38;;;;;;;4.27;3.90;;;20.10;78.30;19.70;96867.00;;;;5053616;28;20207;-78
2023/09/28 08:00:11;;;;;;;4.00;3.70;;;20.20;78.20;19.80;96864.00;;;;5035966;28;20593;-79
2023/09/28 08:02:40;;;;;;;3.60;3.30;;;20.30;78.20;19.90;96855.00;;;;5054348;28;20609;-78
2023/09/28 08:05:08;;;;;;;3.67;3.37;;;20.50;78.10;20.00;96863.00;;;;5055178;28;20255;-78
2023/09/28 08:07:35;;;;;;;3.33;3.03;;;20.50;77.90;20.10;96862.00;;;;5054603;28;20215;-78
2023/09/28 08:10:03;;;;;;;3.57;3.27;;;20.70;77.70;20.20;96867.00;;;;5055302;28;20200;-77
2023/09/28 08:12:30;;;;;;;3.63;3.30;;;20.70;77.50;20.30;96870.00;;;;5055283;28;20201;-78
2023/09/28 08:14:57;;;;;;;3.07;2.87;;;20.90;77.60;20.40;96860.00;;;;5055281;28;20219;-78
2023/09/28 08:17:26;;;;;;;3.20;3.00;;;20.90;77.40;20.50;96870.00;;;;5037669;28;20207;-78
2023/09/28 08:19:54;;;;;;;3.23;2.93;;;21.00;77.60;20.60;96871.00;;;;5036944;28;20207;-78
2023/09/28 08:22:22;;;;;;;3.40;3.10;;;21.10;77.60;20.70;96862.00;;;;5037156;28;20227;-78
2023/09/28 08:24:50;;;;;;;3.27;2.97;;;21.20;77.40;20.80;96861.00;;;;5054563;28;20605;-77
2023/09/28 08:27:17;;;;;;;3.30;3.00;;;21.30;77.10;20.90;96865.00;;;;5055035;28;20220;-77
2023/09/28 08:29:44;;;;;;;3.30;3.00;;;21.40;77.00;21.10;96864.00;;;;5036095;28;20682;-78
2023/09/28 08:32:13;;;;;;;3.40;3.10;;;21.60;76.60;21.30;96864.00;;;;5054692;28;20196;-77
2023/09/28 08:34:44;;;;;;;2.60;2.40;;;21.70;76.60;21.40;96867.00;;;;5055728;28;20251;-77
2023/09/28 08:37:11;;;;;;;2.87;2.67;;;21.80;76.80;21.50;96869.00;;;;5021294;28;20197;-78
2023/09/28 08:39:39;;;;;;;3.07;2.77;;;22.00;76.60;21.60;96871.00;;;;5054577;28;20210;-78
2023/09/28 08:42:13;;;;;;;3.10;2.80;;;22.10;76.50;21.80;96866.00;;;;5037338;28;20225;-77
2023/09/28 08:44:42;;;;;;;2.63;2.43;;;22.20;76.00;21.90;96869.00;;;;5036026;28;20420;-77
2023/09/28 08:47:17;;;;;;;2.77;2.50;;;22.30;75.80;22.10;96871.00;;;;5036395;28;20664;-77
2023/09/28 08:49:50;;;;;;;2.80;2.60;;;22.50;75.50;22.20;96866.00;;;;5054786;28;20247;-77
2023/09/28 08:52:20;;;;;;;3.10;2.70;;;22.60;75.20;22.40;96864.00;;;;5050685;28;20205;-77
2023/09/28 08:54:49;;;;;;;2.87;2.67;;;22.70;75.00;22.50;96863.00;;;;5037781;28;20719;-77
2023/09/28 08:57:17;;;;;;;2.80;2.60;;;22.90;74.80;22.70;96865.00;;;;5057677;28;20227;-78
2023/09/28 08:59:45;;;;;;;2.77;2.57;;;23.00;74.70;22.80;96863.00;;;;5057423;28;20197;-77
2023/09/28 09:02:15;;;;;;;3.00;2.80;;;23.20;74.40;22.90;96865.00;;;;5022988;28;20227;-78
2023/09/28 09:04:42;;;;;;;3.07;2.73;;;23.30;73.80;23.00;96864.00;;;;5038844;28;20662;-77
2023/09/28 09:07:12;;;;;;;3.07;2.73;;;23.40;73.50;23.20;96871.00;;;;5055449;28;20202;-78
2023/09/28 09:09:41;;;;;;;3.10;2.80;;;23.50;72.50;23.30;96868.00;;;;5057109;28;20251;-78
2023/09/28 09:12:11;;;;;;;2.80;2.60;;;23.60;72.40;23.40;96870.00;;;;5057086;28;20282;-78
2023/09/28 09:14:39;;;;;;;2.87;2.57;;;23.80;72.40;23.50;96866.00;;;;5056727;28;20220;-78
2023/09/28 09:17:08;;;;;;;2.53;2.33;;;23.80;72.00;23.70;96873.00;;;;5023539;28;20197;-78
2023/09/28 09:19:36;;;;;;;3.07;2.60;;;24.00;72.00;23.80;96870.00;;;;5056935;28;20211;-78
2023/09/28 09:22:06;;;;;;;2.50;2.30;;;24.10;71.40;23.90;96871.00;;;;5057191;28;20726;-77
2023/09/28 09:24:34;;;;;;;2.50;2.30;;;24.20;71.10;24.10;96871.00;;;;5058760;28;20311;-77
2023/09/28 09:27:02;;;;;;;2.40;2.20;;;24.40;70.80;24.20;96876.00;;;;5040075;28;20200;-77
2023/09/28 09:29:30;;;;;;;2.73;2.40;;;24.50;70.60;24.30;96869.00;;;;5057311;28;20200;-77
2023/09/28 09:31:57;;;;;;;2.90;2.70;;;24.60;70.50;24.40;96876.00;;;;5039333;28;20246;-77
2023/09/28 09:34:25;;;;;;;2.70;2.50;;;24.70;68.90;24.50;96867.00;;;;5056280;28;20227;-78
2023/09/28 09:36:56;;;;;;;2.60;2.40;;;24.80;67.80;24.60;96865.00;;;;5052667;28;20288;-78
2023/09/28 09:39:25;;;;;;;2.60;2.40;;;25.00;67.70;24.70;96862.00;;;;5035557;28;20199;-77
2023/09/28 09:41:57;;;;;;;2.97;2.30;;;25.10;67.90;24.90;96863.00;;;;5018820;28;20623;-77
2023/09/28 09:44:26;;;;;;;2.90;2.67;;;25.20;67.30;24.90;96864.00;;;;5054670;28;20298;-77
2023/09/28 09:46:56;;;;;;;2.73;2.53;;;25.30;67.20;25.00;96866.00;;;;5034465;28;20196;-77
2023/09/28 09:49:25;;;;;;;2.70;2.50;;;25.40;66.10;25.10;96865.00;;;;5055204;28;20653;-77
2023/09/28 09:51:54;;;;;;;2.97;2.70;;;25.40;65.60;25.20;96861.00;;;;5036973;28;20247;-78
2023/09/28 09:54:22;;;;;;;2.40;2.20;;;25.50;64.60;25.30;96858.00;;;;5038224;28;20291;-78
2023/09/28 09:56:51;;;;;;;3.43;2.33;;;25.60;64.70;25.30;96862.00;;;;5055729;28;20199;-78
2023/09/28 09:59:23;;;;;;;3.77;2.60;;;25.70;64.60;25.40;96856.00;;;;5039261;28;20691;-78
2023/09/28 10:01:53;;;;;;;2.47;2.30;;;25.80;63.60;25.40;96860.00;;;;5038748;28;20719;-77
2023/09/28 10:04:22;;;;;;;2.73;2.53;;;25.80;63.40;25.50;96856.00;;;;5044803;28;20763;-77
2023/09/28 10:06:52;;;;;;;2.70;2.50;;;25.90;63.10;25.60;96855.00;;;;5057178;28;20194;-77
2023/09/28 10:09:22;;;;;;;3.03;2.60;;;26.00;62.70;25.70;96856.00;;;;5056709;28;20239;-77
2023/09/28 10:11:51;;;;;;;2.37;2.17;;;26.00;62.60;25.70;96854.00;;;;5057550;28;20209;-77
2023/09/28 10:14:22;;;;;;;2.60;2.40;;;26.10;63.10;25.80;96860.00;;;;5056184;28;20240;-77
2023/09/28 10:16:53;;;;;;;2.27;2.07;;;26.20;63.20;25.90;96859.00;;;;5043535;28;20564;-77
2023/09/28 10:19:25;;;;;;;3.03;2.30;;;26.20;62.60;26.00;96863.00;;;;5055464;28;20239;-77
2023/09/28 10:21:52;;;;;;;2.28;2.00;;;26.30;61.40;26.10;96866.00;;;;5057119;28;20217;-77
2023/09/28 10:24:29;;;;;;;2.60;2.40;;;26.40;61.80;26.10;96862.00;;;;5053776;28;20228;-78
2023/09/28 10:26:56;;;;;;;2.50;2.00;;;26.40;61.80;26.10;96870.00;;;;5053271;28;20219;-77
2023/09/28 10:29:30;;;;;;;2.45;2.25;;;26.50;61.10;26.20;96866.00;;;;5052539;28;20199;-77
2023/09/28 10:31:58;;;;;;;3.17;2.50;;;26.60;61.40;26.30;96864.00;;;;5051086;28;20242;-77
2023/09/28 10:34:27;;;;;;;2.72;2.50;;;26.60;60.30;26.40;96868.00;;;;5052963;28;20308;-77
2023/09/28 10:37:23;;;;;;;2.47;2.28;;;26.70;59.90;26.50;96868.00;;;;5053218;28;20204;-76
2023/09/28 10:39:54;;;;;;;2.45;2.17;;;26.80;58.90;26.60;96863.00;;;;5018051;28;20201;-77
2023/09/28 10:42:23;;;;;;;3.03;2.25;;;26.90;60.00;26.70;96864.00;;;;5038268;28;20218;-77
2023/09/28 10:44:55;;;;;;;3.30;2.55;;;26.90;60.40;26.70;96868.00;;;;5051228;28;20224;-77
2023/09/28 10:47:23;;;;;;;2.40;2.20;;;27.00;60.60;26.70;96856.00;;;;5017337;28;20223;-78
2023/09/28 10:50:00;;;;;;;2.80;2.58;;;27.00;60.00;26.70;96858.00;;;;5034949;28;20203;-77
2023/09/28 10:52:27;;;;;;;2.90;2.33;;;27.00;59.10;26.70;96861.00;;;;5039028;28;20204;-77
2023/09/28 10:54:56;;;;;;;3.00;2.17;;;27.00;59.90;26.70;96858.00;;;;5050065;28;21325;-77
2023/09/28 10:57:30;;;;;;;4.88;2.42;;;27.00;60.20;26.70;96861.00;;;;5044435;28;20192;-77
2023/09/28 11:00:01;;;;;;;2.80;2.33;;;27.10;59.50;26.70;96866.00;;;;5045429;28;20196;-78